CDT,Max TemperatureF,Mean TemperatureF,Min TemperatureF,Max Dew PointF,MeanDew PointF,Min DewpointF,Max Humidity, Mean Humidity, Min Humidity, Max Sea Level PressureIn, Mean Sea Level PressureIn, Min Sea Level PressureIn, Max VisibilityMiles, Mean VisibilityMiles, Min VisibilityMiles, Max Wind SpeedMPH, Mean Wind SpeedMPH, Max Gust SpeedMPH,PrecipitationIn, CloudCover, Events, WindDirDegrees
2013-3-1,37,34,32,34,32,28,100,92,75,30.11,30.06,30.02,10,5,1,15,7,17,0.04,8,Rain-Snow,336
2013-3-2,33,30,28,28,25,19,93,80,64,30.19,30.15,30.11,10,9,2,16,11,20,0.00,8,Rain-Snow,329
2013-3-3,39,31,23,27,21,18,93,71,45,30.18,30.13,30.08,10,10,10,10,5,,0.00,1,,312
2013-3-4,44,36,28,32,27,21,86,65,57,30.10,29.97,29.82,10,10,7,20,8,25,0.00,6,Rain-Snow,107
2013-3-5,42,37,32,39,32,27,100,87,61,29.95,29.83,29.76,10,8,4,26,12,36,0.08,8,Rain-Snow,314
2013-3-6,33,32,30,28,27,25,93,85,75,30.34,30.22,29.96,10,10,7,25,18,36,0.00,8,,313
2013-3-7,37,34,30,28,28,27,93,80,70,30.42,30.38,30.33,10,10,7,7,3,,0.00,7,,41
2013-3-8,50,39,28,36,31,27,100,73,54,30.47,30.38,30.27,10,10,7,12,5,,0.00,0,,92
2013-3-9,59,48,37,39,35,30,75,61,48,30.27,30.08,29.89,10,10,7,17,9,22,0.00,1,,132
2013-3-10,66,58,51,54,46,37,100,70,48,29.89,29.79,29.68,10,10,7,23,12,31,0.18,5,Rain,161
2013-3-11,53,44,35,52,38,28,100,89,75,29.97,29.78,29.67,10,8,2,17,9,26,0.00,8,Rain,251
2013-3-12,48,39,30,32,29,27,86,69,49,30.14,30.05,29.97,10,10,10,17,9,26,0.00,2,Snow,272
2013-3-13,37,32,28,28,22,19,93,69,52,30.39,30.29,30.14,10,10,7,23,14,31,0.01,4,Snow,299
2013-3-14,42,32,21,34,27,21,100,80,52,30.39,30.30,30.15,10,10,10,12,3,16,0.00,2,Rain,160
2013-3-15,62,45,28,52,40,28,100,75,52,30.14,29.89,29.65,10,8,2,13,4,17,0.00,1,,156
2013-3-16,62,50,37,52,42,34,93,78,63,30.04,29.86,29.64,10,8,2,20,9,25,0.03,5,Rain-Thunderstorm,318
2013-3-17,39,36,33,37,34,30,100,91,81,30.09,30.01,29.84,10,8,4,17,10,23,1.01,8,Rain-Snow-Thunderstorm,54
2013-3-18,46,42,37,43,38,30,100,91,75,29.95,29.75,29.64,10,8,0,20,9,25,0.36,6,Fog-Rain-Thunderstorm,272
2013-3-19,46,38,30,28,24,21,81,60,37,30.19,30.12,29.96,10,10,10,18,11,25,0.00,0,,276
2013-3-20,33,28,24,27,19,14,80,63,52,30.20,30.14,30.09,10,10,10,23,9,31,0.00,3,,293
2013-3-21,37,29,21,23,17,12,86,64,48,30.12,30.07,30.01,10,10,4,13,6,21,0.00,1,Snow,321
2013-3-22,39,31,23,32,22,18,93,66,45,30.07,30.04,30.01,10,10,10,9,2,,0.00,5,,118
2013-3-23,55,45,35,30,29,27,75,55,36,30.05,29.96,29.80,10,9,4,12,4,16,0.00,4,Rain,50
2013-3-24,44,38,32,36,34,30,100,92,57,29.85,29.60,29.44,10,5,0,24,10,36,0.37,8,Rain-Snow-Thunderstorm,21
2013-3-25,35,34,32,32,30,28,93,86,75,30.12,29.99,29.86,10,8,2,22,17,30,0.09,8,Rain-Snow,294
2013-3-26,42,37,32,32,29,25,93,76,53,30.32,30.24,30.12,10,10,10,16,10,23,0.03,6,Rain,290
2013-3-27,48,39,30,30,27,25,86,66,46,30.38,30.34,30.32,10,10,10,12,5,16,0.00,4,,295
2013-3-28,55,40,26,36,28,25,100,63,31,30.39,30.33,30.28,10,10,7,7,1,,0.00,1,,107
2013-3-29,57,49,41,45,39,30,100,71,58,30.29,30.25,30.20,10,10,3,8,2,,0.00,4,,107
2013-3-30,60,46,33,48,42,34,100,86,48,30.22,30.09,29.91,10,5,0,14,3,18,0.02,5,Fog-Rain,155
2013-3-31,64,56,48,48,47,39,100,78,49,29.91,29.87,29.84,10,7,1,14,3,20,0.00,6,Rain,272